sensor_id;sensor_type;location;lat;lon;timestamp;P1;durP1;ratioP1;P2;durP2;ratioP2
15132;SDS011;7667;51.232;17.110;2023-02-18T00:01:34;2.13;;;1.37;;
15132;SDS011;7667;51.232;17.110;2023-02-18T00:04:02;1.43;;;0.70;;
15132;SDS011;7667;51.232;17.110;2023-02-18T00:06:31;1.90;;;1.00;;
15132;SDS011;7667;51.232;17.110;2023-02-18T00:09:00;1.13;;;1.00;;
15132;SDS011;7667;51.232;17.110;2023-02-18T00:11:31;1.67;;;0.90;;
15132;SDS011;7667;51.232;17.110;2023-02-18T00:14:01;1.27;;;0.90;;
15132;SDS011;7667;51.232;17.110;2023-02-18T00:16:33;1.77;;;1.10;;
15132;SDS011;7667;51.232;17.110;2023-02-18T00:19:01;2.20;;;1.23;;
15132;SDS011;7667;51.232;17.110;2023-02-18T00:21:32;1.70;;;1.00;;
15132;SDS011;7667;51.232;17.110;2023-02-18T00:24:01;1.63;;;0.83;;
15132;SDS011;7667;51.232;17.110;2023-02-18T00:26:31;1.83;;;0.80;;
15132;SDS011;7667;51.232;17.110;2023-02-18T00:28:58;1.77;;;0.77;;
15132;SDS011;7667;51.232;17.110;2023-02-18T00:31:30;1.97;;;0.50;;
15132;SDS011;7667;51.232;17.110;2023-02-18T00:34:00;1.77;;;0.70;;
15132;SDS011;7667;51.232;17.110;2023-02-18T00:36:29;1.77;;;0.60;;
15132;SDS011;7667;51.232;17.110;2023-02-18T00:39:00;1.40;;;0.60;;
15132;SDS011;7667;51.232;17.110;2023-02-18T00:41:30;0.77;;;0.50;;
15132;SDS011;7667;51.232;17.110;2023-02-18T00:43:59;2.50;;;0.60;;
15132;SDS011;7667;51.232;17.110;2023-02-18T00:46:26;1.77;;;0.70;;
15132;SDS011;7667;51.232;17.110;2023-02-18T00:48:54;1.17;;;0.50;;
15132;SDS011;7667;51.232;17.110;2023-02-18T00:51:22;1.93;;;0.70;;
15132;SDS011;7667;51.232;17.110;2023-02-18T00:53:51;1.23;;;0.50;;
15132;SDS011;7667;51.232;17.110;2023-02-18T00:56:19;1.40;;;0.80;;
15132;SDS011;7667;51.232;17.110;2023-02-18T00:58:47;2.00;;;0.60;;
15132;SDS011;7667;51.232;17.110;2023-02-18T01:01:15;0.80;;;0.50;;
15132;SDS011;7667;51.232;17.110;2023-02-18T01:03:44;1.27;;;0.67;;
15132;SDS011;7667;51.232;17.110;2023-02-18T01:06:12;0.90;;;0.50;;
15132;SDS011;7667;51.232;17.110;2023-02-18T01:08:40;1.63;;;0.67;;
15132;SDS011;7667;51.232;17.110;2023-02-18T01:11:08;1.77;;;0.70;;
15132;SDS011;7667;51.232;17.110;2023-02-18T01:13:37;1.90;;;0.77;;
15132;SDS011;7667;51.232;17.110;2023-02-18T01:16:06;1.13;;;0.53;;
15132;SDS011;7667;51.232;17.110;2023-02-18T01:18:35;2.17;;;0.60;;
15132;SDS011;7667;51.232;17.110;2023-02-18T01:21:04;0.67;;;0.40;;
15132;SDS011;7667;51.232;17.110;2023-02-18T01:23:35;1.00;;;0.30;;
15132;SDS011;7667;51.232;17.110;2023-02-18T01:26:05;0.73;;;0.50;;
15132;SDS011;7667;51.232;17.110;2023-02-18T01:28:33;0.80;;;0.43;;
15132;SDS011;7667;51.232;17.110;2023-02-18T01:31:08;2.37;;;0.80;;
15132;SDS011;7667;51.232;17.110;2023-02-18T01:33:38;1.10;;;0.50;;
15132;SDS011;7667;51.232;17.110;2023-02-18T01:36:07;1.30;;;0.70;;
15132;SDS011;7667;51.232;17.110;2023-02-18T01:38:36;3.80;;;0.50;;
15132;SDS011;7667;51.232;17.110;2023-02-18T01:41:05;1.27;;;0.50;;
15132;SDS011;7667;51.232;17.110;2023-02-18T01:43:32;1.67;;;0.60;;
15132;SDS011;7667;51.232;17.110;2023-02-18T01:46:14;2.27;;;0.60;;
15132;SDS011;7667;51.232;17.110;2023-02-18T01:48:46;2.33;;;0.80;;
15132;SDS011;7667;51.232;17.110;2023-02-18T01:51:31;1.43;;;0.60;;
15132;SDS011;7667;51.232;17.110;2023-02-18T01:56:47;0.60;;;0.43;;
15132;SDS011;7667;51.232;17.110;2023-02-18T02:00:13;1.13;;;0.70;;
15132;SDS011;7667;51.232;17.110;2023-02-18T02:02:27;1.80;;;0.70;;
15132;SDS011;7667;51.232;17.110;2023-02-18T02:04:55;1.67;;;0.80;;
15132;SDS011;7667;51.232;17.110;2023-02-18T02:07:24;2.13;;;0.70;;
15132;SDS011;7667;51.232;17.110;2023-02-18T02:09:53;1.43;;;0.60;;
15132;SDS011;7667;51.232;17.110;2023-02-18T02:32:17;1.87;;;0.60;;
15132;SDS011;7667;51.232;17.110;2023-02-18T02:47:13;2.27;;;0.70;;
15132;SDS011;7667;51.232;17.110;2023-02-18T02:50:48;2.10;;;0.60;;
15132;SDS011;7667;51.232;17.110;2023-02-18T02:53:17;1.40;;;0.70;;
15132;SDS011;7667;51.232;17.110;2023-02-18T02:55:53;2.27;;;0.70;;
15132;SDS011;7667;51.232;17.110;2023-02-18T02:58:21;3.37;;;1.20;;
15132;SDS011;7667;51.232;17.110;2023-02-18T03:01:00;1.67;;;0.57;;
15132;SDS011;7667;51.232;17.110;2023-02-18T03:04:11;2.00;;;0.60;;
15132;SDS011;7667;51.232;17.110;2023-02-18T03:07:00;3.27;;;0.80;;
15132;SDS011;7667;51.232;17.110;2023-02-18T03:12:54;2.13;;;0.70;;
15132;SDS011;7667;51.232;17.110;2023-02-18T03:15:38;1.80;;;0.80;;
15132;SDS011;7667;51.232;17.110;2023-02-18T03:18:47;1.47;;;0.70;;
15132;SDS011;7667;51.232;17.110;2023-02-18T03:27:23;2.87;;;0.80;;
15132;SDS011;7667;51.232;17.110;2023-02-18T03:30:15;2.10;;;0.80;;
15132;SDS011;7667;51.232;17.110;2023-02-18T03:32:54;2.97;;;0.70;;
15132;SDS011;7667;51.232;17.110;2023-02-18T03:35:25;2.60;;;0.83;;
15132;SDS011;7667;51.232;17.110;2023-02-18T03:38:06;1.97;;;0.93;;
15132;SDS011;7667;51.232;17.110;2023-02-18T03:40:40;3.40;;;0.77;;
15132;SDS011;7667;51.232;17.110;2023-02-18T03:43:07;2.93;;;0.80;;
15132;SDS011;7667;51.232;17.110;2023-02-18T03:45:35;2.43;;;1.00;;
15132;SDS011;7667;51.232;17.110;2023-02-18T03:48:03;3.63;;;1.00;;
15132;SDS011;7667;51.232;17.110;2023-02-18T03:50:31;2.80;;;0.70;;
15132;SDS011;7667;51.232;17.110;2023-02-18T03:52:58;2.20;;;0.70;;
15132;SDS011;7667;51.232;17.110;2023-02-18T03:55:26;2.87;;;0.67;;
15132;SDS011;7667;51.232;17.110;2023-02-18T03:57:53;1.53;;;0.60;;
15132;SDS011;7667;51.232;17.110;2023-02-18T04:00:21;1.90;;;0.60;;
15132;SDS011;7667;51.232;17.110;2023-02-18T04:02:48;1.47;;;0.53;;
15132;SDS011;7667;51.232;17.110;2023-02-18T04:05:16;4.70;;;0.97;;
15132;SDS011;7667;51.232;17.110;2023-02-18T04:07:43;1.37;;;0.77;;
15132;SDS011;7667;51.232;17.110;2023-02-18T04:10:11;1.30;;;0.70;;
15132;SDS011;7667;51.232;17.110;2023-02-18T04:12:39;0.80;;;0.47;;
15132;SDS011;7667;51.232;17.110;2023-02-18T04:15:06;2.60;;;0.80;;
15132;SDS011;7667;51.232;17.110;2023-02-18T04:17:34;2.93;;;0.70;;
15132;SDS011;7667;51.232;17.110;2023-02-18T04:20:02;1.77;;;0.60;;
15132;SDS011;7667;51.232;17.110;2023-02-18T04:22:30;1.10;;;0.60;;
15132;SDS011;7667;51.232;17.110;2023-02-18T04:24:58;2.17;;;0.70;;
15132;SDS011;7667;51.232;17.110;2023-02-18T04:27:26;3.90;;;1.13;;
15132;SDS011;7667;51.232;17.110;2023-02-18T04:29:53;2.60;;;0.87;;
15132;SDS011;7667;51.232;17.110;2023-02-18T04:32:21;5.07;;;2.23;;
15132;SDS011;7667;51.232;17.110;2023-02-18T04:34:48;5.27;;;2.13;;
15132;SDS011;7667;51.232;17.110;2023-02-18T04:37:16;8.90;;;5.00;;
15132;SDS011;7667;51.232;17.110;2023-02-18T04:39:43;5.13;;;2.80;;
15132;SDS011;7667;51.232;17.110;2023-02-18T04:42:10;4.50;;;2.20;;
15132;SDS011;7667;51.232;17.110;2023-02-18T04:44:38;3.27;;;1.97;;
15132;SDS011;7667;51.232;17.110;2023-02-18T04:47:06;6.97;;;2.50;;
15132;SDS011;7667;51.232;17.110;2023-02-18T04:49:34;4.83;;;1.80;;
15132;SDS011;7667;51.232;17.110;2023-02-18T04:52:02;4.30;;;1.23;;
15132;SDS011;7667;51.232;17.110;2023-02-18T04:54:30;2.40;;;1.20;;
15132;SDS011;7667;51.232;17.110;2023-02-18T04:56:57;1.87;;;0.80;;
15132;SDS011;7667;51.232;17.110;2023-02-18T04:59:25;2.60;;;1.00;;
15132;SDS011;7667;51.232;17.110;2023-02-18T05:01:52;2.23;;;1.30;;
15132;SDS011;7667;51.232;17.110;2023-02-18T05:04:20;3.33;;;1.23;;
15132;SDS011;7667;51.232;17.110;2023-02-18T05:06:48;1.83;;;0.90;;
15132;SDS011;7667;51.232;17.110;2023-02-18T05:09:15;1.87;;;0.70;;
15132;SDS011;7667;51.232;17.110;2023-02-18T05:11:43;2.23;;;0.90;;
15132;SDS011;7667;51.232;17.110;2023-02-18T05:14:10;3.57;;;0.90;;
15132;SDS011;7667;51.232;17.110;2023-02-18T05:16:38;2.47;;;0.80;;
15132;SDS011;7667;51.232;17.110;2023-02-18T05:19:05;3.50;;;0.90;;
15132;SDS011;7667;51.232;17.110;2023-02-18T05:21:33;3.07;;;0.80;;
15132;SDS011;7667;51.232;17.110;2023-02-18T05:24:00;1.20;;;0.60;;
15132;SDS011;7667;51.232;17.110;2023-02-18T05:26:28;1.37;;;0.70;;
15132;SDS011;7667;51.232;17.110;2023-02-18T05:28:55;7.37;;;0.93;;
15132;SDS011;7667;51.232;17.110;2023-02-18T05:31:23;4.07;;;0.87;;
15132;SDS011;7667;51.232;17.110;2023-02-18T05:33:51;2.13;;;0.90;;
15132;SDS011;7667;51.232;17.110;2023-02-18T05:36:18;2.97;;;0.90;;
15132;SDS011;7667;51.232;17.110;2023-02-18T05:38:45;2.40;;;0.80;;
15132;SDS011;7667;51.232;17.110;2023-02-18T05:41:13;2.00;;;0.70;;
15132;SDS011;7667;51.232;17.110;2023-02-18T05:43:40;1.53;;;0.77;;
15132;SDS011;7667;51.232;17.110;2023-02-18T05:46:27;2.67;;;0.70;;
15132;SDS011;7667;51.232;17.110;2023-02-18T05:48:54;1.60;;;0.60;;
15132;SDS011;7667;51.232;17.110;2023-02-18T05:51:22;2.83;;;0.90;;
15132;SDS011;7667;51.232;17.110;2023-02-18T05:53:49;2.03;;;0.70;;
15132;SDS011;7667;51.232;17.110;2023-02-18T05:56:17;1.10;;;0.60;;
15132;SDS011;7667;51.232;17.110;2023-02-18T05:58:44;2.13;;;0.80;;
15132;SDS011;7667;51.232;17.110;2023-02-18T06:01:11;2.20;;;0.70;;
15132;SDS011;7667;51.232;17.110;2023-02-18T06:03:39;2.67;;;0.90;;
15132;SDS011;7667;51.232;17.110;2023-02-18T06:06:07;2.33;;;0.83;;
15132;SDS011;7667;51.232;17.110;2023-02-18T06:08:35;2.27;;;0.70;;
15132;SDS011;7667;51.232;17.110;2023-02-18T06:11:02;2.63;;;0.83;;
15132;SDS011;7667;51.232;17.110;2023-02-18T06:13:30;1.93;;;0.80;;
15132;SDS011;7667;51.232;17.110;2023-02-18T06:15:57;2.50;;;0.57;;
15132;SDS011;7667;51.232;17.110;2023-02-18T06:18:25;2.53;;;0.90;;
15132;SDS011;7667;51.232;17.110;2023-02-18T06:20:52;1.70;;;0.80;;
15132;SDS011;7667;51.232;17.110;2023-02-18T06:23:20;2.90;;;0.90;;
15132;SDS011;7667;51.232;17.110;2023-02-18T06:25:48;1.73;;;0.70;;
15132;SDS011;7667;51.232;17.110;2023-02-18T06:28:16;2.37;;;0.90;;
15132;SDS011;7667;51.232;17.110;2023-02-18T06:30:44;1.47;;;0.80;;
15132;SDS011;7667;51.232;17.110;2023-02-18T06:33:11;1.53;;;0.63;;
15132;SDS011;7667;51.232;17.110;2023-02-18T06:35:39;3.00;;;1.07;;
15132;SDS011;7667;51.232;17.110;2023-02-18T06:38:07;1.07;;;0.73;;
15132;SDS011;7667;51.232;17.110;2023-02-18T06:40:34;2.67;;;0.80;;
15132;SDS011;7667;51.232;17.110;2023-02-18T06:43:02;2.43;;;0.70;;
15132;SDS011;7667;51.232;17.110;2023-02-18T06:45:29;4.50;;;0.90;;
15132;SDS011;7667;51.232;17.110;2023-02-18T06:47:56;3.23;;;1.00;;
15132;SDS011;7667;51.232;17.110;2023-02-18T06:50:24;3.20;;;0.97;;
15132;SDS011;7667;51.232;17.110;2023-02-18T06:52:51;1.83;;;0.60;;
15132;SDS011;7667;51.232;17.110;2023-02-18T06:55:19;2.13;;;1.00;;
15132;SDS011;7667;51.232;17.110;2023-02-18T06:57:47;2.10;;;0.77;;
15132;SDS011;7667;51.232;17.110;2023-02-18T07:00:14;2.07;;;0.90;;
15132;SDS011;7667;51.232;17.110;2023-02-18T07:02:42;2.27;;;0.70;;
15132;SDS011;7667;51.232;17.110;2023-02-18T07:05:09;1.77;;;0.80;;
15132;SDS011;7667;51.232;17.110;2023-02-18T07:07:37;2.03;;;0.70;;
15132;SDS011;7667;51.232;17.110;2023-02-18T07:10:05;2.57;;;0.80;;
15132;SDS011;7667;51.232;17.110;2023-02-18T07:12:33;1.50;;;0.60;;
15132;SDS011;7667;51.232;17.110;2023-02-18T07:15:01;1.60;;;0.60;;
15132;SDS011;7667;51.232;17.110;2023-02-18T07:17:29;2.83;;;0.97;;
15132;SDS011;7667;51.232;17.110;2023-02-18T07:19:56;2.20;;;0.80;;
15132;SDS011;7667;51.232;17.110;2023-02-18T07:22:24;3.97;;;0.90;;
15132;SDS011;7667;51.232;17.110;2023-02-18T07:24:52;1.70;;;0.73;;
15132;SDS011;7667;51.232;17.110;2023-02-18T07:27:20;4.47;;;1.60;;
15132;SDS011;7667;51.232;17.110;2023-02-18T07:29:48;3.17;;;1.00;;
15132;SDS011;7667;51.232;17.110;2023-02-18T07:32:16;6.93;;;3.70;;
15132;SDS011;7667;51.232;17.110;2023-02-18T07:34:45;12.63;;;7.57;;
15132;SDS011;7667;51.232;17.110;2023-02-18T07:37:12;3.53;;;1.50;;
15132;SDS011;7667;51.232;17.110;2023-02-18T07:39:40;4.23;;;1.40;;
15132;SDS011;7667;51.232;17.110;2023-02-18T07:42:09;2.03;;;0.93;;
15132;SDS011;7667;51.232;17.110;2023-02-18T07:44:37;11.73;;;6.90;;
15132;SDS011;7667;51.232;17.110;2023-02-18T07:47:06;2.60;;;0.90;;
15132;SDS011;7667;51.232;17.110;2023-02-18T07:49:35;2.60;;;1.00;;
15132;SDS011;7667;51.232;17.110;2023-02-18T07:52:03;1.70;;;0.80;;
15132;SDS011;7667;51.232;17.110;2023-02-18T07:54:31;4.73;;;1.10;;
15132;SDS011;7667;51.232;17.110;2023-02-18T07:56:58;2.53;;;0.80;;
15132;SDS011;7667;51.232;17.110;2023-02-18T07:59:26;2.63;;;1.10;;
15132;SDS011;7667;51.232;17.110;2023-02-18T08:01:53;2.87;;;1.07;;
15132;SDS011;7667;51.232;17.110;2023-02-18T08:04:21;2.17;;;0.90;;
15132;SDS011;7667;51.232;17.110;2023-02-18T08:06:48;2.17;;;1.00;;
15132;SDS011;7667;51.232;17.110;2023-02-18T08:09:16;3.10;;;1.23;;
15132;SDS011;7667;51.232;17.110;2023-02-18T08:11:44;1.87;;;0.90;;
15132;SDS011;7667;51.232;17.110;2023-02-18T08:14:11;2.63;;;1.00;;
15132;SDS011;7667;51.232;17.110;2023-02-18T08:16:39;1.83;;;0.80;;
15132;SDS011;7667;51.232;17.110;2023-02-18T08:19:06;3.23;;;0.73;;
15132;SDS011;7667;51.232;17.110;2023-02-18T08:21:34;2.50;;;0.80;;
15132;SDS011;7667;51.232;17.110;2023-02-18T08:24:02;2.17;;;0.80;;
15132;SDS011;7667;51.232;17.110;2023-02-18T08:26:29;2.70;;;0.80;;
15132;SDS011;7667;51.232;17.110;2023-02-18T08:28:57;1.90;;;0.93;;
15132;SDS011;7667;51.232;17.110;2023-02-18T08:31:25;1.13;;;0.67;;
15132;SDS011;7667;51.232;17.110;2023-02-18T08:33:55;1.30;;;0.60;;
15132;SDS011;7667;51.232;17.110;2023-02-18T08:36:24;1.77;;;0.60;;
15132;SDS011;7667;51.232;17.110;2023-02-18T08:38:53;0.93;;;0.70;;
15132;SDS011;7667;51.232;17.110;2023-02-18T08:41:20;0.90;;;0.50;;
15132;SDS011;7667;51.232;17.110;2023-02-18T08:43:48;1.13;;;0.57;;
15132;SDS011;7667;51.232;17.110;2023-02-18T08:46:16;2.10;;;0.77;;
15132;SDS011;7667;51.232;17.110;2023-02-18T08:49:00;1.90;;;0.77;;
15132;SDS011;7667;51.232;17.110;2023-02-18T08:51:28;2.00;;;0.73;;
15132;SDS011;7667;51.232;17.110;2023-02-18T08:53:57;1.47;;;0.90;;
15132;SDS011;7667;51.232;17.110;2023-02-18T08:56:25;1.33;;;0.60;;
15132;SDS011;7667;51.232;17.110;2023-02-18T08:58:52;2.23;;;0.60;;
15132;SDS011;7667;51.232;17.110;2023-02-18T09:01:20;1.73;;;0.87;;
15132;SDS011;7667;51.232;17.110;2023-02-18T09:03:47;2.07;;;0.80;;
15132;SDS011;7667;51.232;17.110;2023-02-18T09:06:15;2.87;;;0.80;;
15132;SDS011;7667;51.232;17.110;2023-02-18T09:08:42;1.60;;;0.80;;
15132;SDS011;7667;51.232;17.110;2023-02-18T09:11:10;2.03;;;0.80;;
15132;SDS011;7667;51.232;17.110;2023-02-18T09:13:38;1.13;;;0.70;;
15132;SDS011;7667;51.232;17.110;2023-02-18T09:16:07;1.73;;;0.73;;
15132;SDS011;7667;51.232;17.110;2023-02-18T09:18:38;2.00;;;0.80;;
15132;SDS011;7667;51.232;17.110;2023-02-18T09:21:07;2.57;;;0.70;;
15132;SDS011;7667;51.232;17.110;2023-02-18T09:23:36;0.80;;;0.50;;
15132;SDS011;7667;51.232;17.110;2023-02-18T09:26:04;2.47;;;0.70;;
15132;SDS011;7667;51.232;17.110;2023-02-18T09:28:33;2.43;;;0.90;;
15132;SDS011;7667;51.232;17.110;2023-02-18T09:31:03;1.93;;;0.90;;
15132;SDS011;7667;51.232;17.110;2023-02-18T09:33:38;3.20;;;0.73;;
15132;SDS011;7667;51.232;17.110;2023-02-18T09:36:11;2.37;;;0.73;;
15132;SDS011;7667;51.232;17.110;2023-02-18T09:38:39;2.37;;;0.73;;
15132;SDS011;7667;51.232;17.110;2023-02-18T09:41:08;1.27;;;0.70;;
15132;SDS011;7667;51.232;17.110;2023-02-18T09:43:53;1.20;;;0.70;;
15132;SDS011;7667;51.232;17.110;2023-02-18T09:46:47;1.87;;;1.10;;
15132;SDS011;7667;51.232;17.110;2023-02-18T09:49:24;2.07;;;0.80;;
15132;SDS011;7667;51.232;17.110;2023-02-18T09:51:54;1.77;;;0.80;;
15132;SDS011;7667;51.232;17.110;2023-02-18T09:54:23;1.47;;;0.73;;
15132;SDS011;7667;51.232;17.110;2023-02-18T09:56:52;1.90;;;0.90;;
15132;SDS011;7667;51.232;17.110;2023-02-18T09:59:21;2.67;;;0.80;;
15132;SDS011;7667;51.232;17.110;2023-02-18T10:01:51;2.77;;;0.80;;
15132;SDS011;7667;51.232;17.110;2023-02-18T10:04:21;1.60;;;0.73;;
15132;SDS011;7667;51.232;17.110;2023-02-18T10:07:24;2.27;;;0.67;;
15132;SDS011;7667;51.232;17.110;2023-02-18T10:10:00;2.00;;;0.80;;
15132;SDS011;7667;51.232;17.110;2023-02-18T10:12:42;1.57;;;0.80;;
15132;SDS011;7667;51.232;17.110;2023-02-18T10:15:15;1.93;;;0.70;;
15132;SDS011;7667;51.232;17.110;2023-02-18T10:17:48;2.50;;;0.80;;
15132;SDS011;7667;51.232;17.110;2023-02-18T10:20:22;1.60;;;0.77;;
15132;SDS011;7667;51.232;17.110;2023-02-18T10:22:54;2.30;;;0.97;;
15132;SDS011;7667;51.232;17.110;2023-02-18T10:25:26;2.07;;;0.90;;
15132;SDS011;7667;51.232;17.110;2023-02-18T10:27:55;2.43;;;1.07;;
15132;SDS011;7667;51.232;17.110;2023-02-18T10:33:13;6.37;;;3.77;;
15132;SDS011;7667;51.232;17.110;2023-02-18T10:35:58;2.63;;;1.17;;
15132;SDS011;7667;51.232;17.110;2023-02-18T10:44:39;2.03;;;1.00;;
15132;SDS011;7667;51.232;17.110;2023-02-18T10:47:33;2.90;;;0.90;;
15132;SDS011;7667;51.232;17.110;2023-02-18T10:50:36;3.13;;;0.97;;
15132;SDS011;7667;51.232;17.110;2023-02-18T10:53:30;2.43;;;0.90;;
15132;SDS011;7667;51.232;17.110;2023-02-18T10:56:06;1.43;;;0.80;;
15132;SDS011;7667;51.232;17.110;2023-02-18T11:01:13;2.83;;;1.10;;
15132;SDS011;7667;51.232;17.110;2023-02-18T11:03:47;1.63;;;1.00;;
15132;SDS011;7667;51.232;17.110;2023-02-18T11:08:59;1.50;;;0.90;;
15132;SDS011;7667;51.232;17.110;2023-02-18T11:11:29;3.50;;;1.20;;
15132;SDS011;7667;51.232;17.110;2023-02-18T11:14:03;3.47;;;1.20;;
15132;SDS011;7667;51.232;17.110;2023-02-18T11:16:40;2.57;;;1.00;;
15132;SDS011;7667;51.232;17.110;2023-02-18T11:22:06;3.23;;;0.80;;
15132;SDS011;7667;51.232;17.110;2023-02-18T11:24:54;3.30;;;1.30;;
15132;SDS011;7667;51.232;17.110;2023-02-18T11:27:50;4.50;;;1.33;;
15132;SDS011;7667;51.232;17.110;2023-02-18T11:30:25;2.00;;;1.00;;
15132;SDS011;7667;51.232;17.110;2023-02-18T11:33:15;4.37;;;1.40;;
15132;SDS011;7667;51.232;17.110;2023-02-18T11:35:55;4.27;;;1.40;;
15132;SDS011;7667;51.232;17.110;2023-02-18T11:38:25;4.33;;;1.27;;
15132;SDS011;7667;51.232;17.110;2023-02-18T11:41:16;3.97;;;1.30;;
15132;SDS011;7667;51.232;17.110;2023-02-18T11:44:16;3.60;;;1.40;;
15132;SDS011;7667;51.232;17.110;2023-02-18T11:46:56;2.80;;;1.20;;
15132;SDS011;7667;51.232;17.110;2023-02-18T11:49:24;6.03;;;1.40;;
15132;SDS011;7667;51.232;17.110;2023-02-18T11:51:52;3.40;;;1.80;;
15132;SDS011;7667;51.232;17.110;2023-02-18T11:54:21;2.83;;;1.27;;
15132;SDS011;7667;51.232;17.110;2023-02-18T11:59:33;3.37;;;1.43;;
15132;SDS011;7667;51.232;17.110;2023-02-18T12:07:49;4.60;;;1.77;;
15132;SDS011;7667;51.232;17.110;2023-02-18T12:10:39;4.27;;;1.90;;
15132;SDS011;7667;51.232;17.110;2023-02-18T12:13:20;4.47;;;2.37;;
15132;SDS011;7667;51.232;17.110;2023-02-18T12:25:50;7.87;;;2.90;;
15132;SDS011;7667;51.232;17.110;2023-02-18T12:39:48;4.80;;;2.87;;
15132;SDS011;7667;51.232;17.110;2023-02-18T12:54:38;7.53;;;3.00;;
15132;SDS011;7667;51.232;17.110;2023-02-18T12:57:42;5.83;;;3.13;;
15132;SDS011;7667;51.232;17.110;2023-02-18T13:12:24;5.70;;;3.17;;
15132;SDS011;7667;51.232;17.110;2023-02-18T13:15:43;6.50;;;4.30;;
15132;SDS011;7667;51.232;17.110;2023-02-18T13:18:23;8.57;;;4.30;;
15132;SDS011;7667;51.232;17.110;2023-02-18T13:21:02;7.10;;;4.30;;
15132;SDS011;7667;51.232;17.110;2023-02-18T13:23:35;9.40;;;5.40;;
15132;SDS011;7667;51.232;17.110;2023-02-18T13:26:23;11.13;;;6.57;;
15132;SDS011;7667;51.232;17.110;2023-02-18T13:31:58;12.83;;;8.10;;
15132;SDS011;7667;51.232;17.110;2023-02-18T13:40:42;12.77;;;6.53;;
15132;SDS011;7667;51.232;17.110;2023-02-18T13:48:34;7.53;;;5.40;;
15132;SDS011;7667;51.232;17.110;2023-02-18T13:51:28;9.60;;;6.00;;
15132;SDS011;7667;51.232;17.110;2023-02-18T13:56:43;10.53;;;7.80;;
15132;SDS011;7667;51.232;17.110;2023-02-18T14:04:47;11.43;;;7.80;;
15132;SDS011;7667;51.232;17.110;2023-02-18T14:18:21;16.57;;;10.73;;
15132;SDS011;7667;51.232;17.110;2023-02-18T14:20:56;16.00;;;10.83;;
15132;SDS011;7667;51.232;17.110;2023-02-18T14:26:23;14.50;;;10.00;;
15132;SDS011;7667;51.232;17.110;2023-02-18T14:29:00;12.93;;;9.10;;
15132;SDS011;7667;51.232;17.110;2023-02-18T14:31:35;12.30;;;7.67;;
15132;SDS011;7667;51.232;17.110;2023-02-18T14:36:56;10.27;;;7.00;;
15132;SDS011;7667;51.232;17.110;2023-02-18T14:40:11;10.20;;;8.20;;
15132;SDS011;7667;51.232;17.110;2023-02-18T14:43:01;12.00;;;8.67;;
15132;SDS011;7667;51.232;17.110;2023-02-18T14:48:46;11.97;;;8.77;;
15132;SDS011;7667;51.232;17.110;2023-02-18T14:51:48;10.57;;;7.20;;
15132;SDS011;7667;51.232;17.110;2023-02-18T14:54:18;15.37;;;9.87;;
15132;SDS011;7667;51.232;17.110;2023-02-18T14:59:39;11.93;;;9.07;;
15132;SDS011;7667;51.232;17.110;2023-02-18T15:02:17;12.23;;;8.57;;
15132;SDS011;7667;51.232;17.110;2023-02-18T15:04:53;13.13;;;9.77;;
15132;SDS011;7667;51.232;17.110;2023-02-18T15:07:20;17.47;;;13.17;;
15132;SDS011;7667;51.232;17.110;2023-02-18T15:09:51;17.17;;;13.40;;
15132;SDS011;7667;51.232;17.110;2023-02-18T15:12:21;14.40;;;9.47;;
15132;SDS011;7667;51.232;17.110;2023-02-18T15:14:52;24.93;;;14.87;;
15132;SDS011;7667;51.232;17.110;2023-02-18T15:17:21;24.43;;;15.47;;
15132;SDS011;7667;51.232;17.110;2023-02-18T15:19:56;18.67;;;12.93;;
15132;SDS011;7667;51.232;17.110;2023-02-18T15:22:31;12.93;;;8.40;;
15132;SDS011;7667;51.232;17.110;2023-02-18T15:25:01;12.40;;;9.03;;
15132;SDS011;7667;51.232;17.110;2023-02-18T15:27:29;18.37;;;9.43;;
15132;SDS011;7667;51.232;17.110;2023-02-18T15:32:55;10.60;;;8.57;;
15132;SDS011;7667;51.232;17.110;2023-02-18T15:35:27;14.77;;;7.77;;
15132;SDS011;7667;51.232;17.110;2023-02-18T15:37:59;9.70;;;7.23;;
15132;SDS011;7667;51.232;17.110;2023-02-18T15:40:29;6.20;;;5.27;;
15132;SDS011;7667;51.232;17.110;2023-02-18T15:43:00;5.30;;;4.07;;
15132;SDS011;7667;51.232;17.110;2023-02-18T15:45:31;6.23;;;3.80;;
15132;SDS011;7667;51.232;17.110;2023-02-18T15:48:05;3.57;;;2.47;;
15132;SDS011;7667;51.232;17.110;2023-02-18T15:50:35;2.50;;;2.30;;
15132;SDS011;7667;51.232;17.110;2023-02-18T15:53:13;2.50;;;2.30;;
15132;SDS011;7667;51.232;17.110;2023-02-18T15:55:45;3.23;;;1.73;;
15132;SDS011;7667;51.232;17.110;2023-02-18T15:58:17;2.20;;;1.70;;
15132;SDS011;7667;51.232;17.110;2023-02-18T16:00:54;1.80;;;1.60;;
15132;SDS011;7667;51.232;17.110;2023-02-18T16:03:25;2.27;;;1.77;;
15132;SDS011;7667;51.232;17.110;2023-02-18T16:06:10;2.13;;;1.80;;
15132;SDS011;7667;51.232;17.110;2023-02-18T16:08:38;2.03;;;1.83;;
15132;SDS011;7667;51.232;17.110;2023-02-18T16:11:10;2.37;;;2.00;;
15132;SDS011;7667;51.232;17.110;2023-02-18T16:13:45;2.20;;;2.00;;
15132;SDS011;7667;51.232;17.110;2023-02-18T16:16:21;1.93;;;1.80;;
15132;SDS011;7667;51.232;17.110;2023-02-18T16:18:59;1.93;;;1.73;;
15132;SDS011;7667;51.232;17.110;2023-02-18T16:21:30;2.83;;;1.80;;
15132;SDS011;7667;51.232;17.110;2023-02-18T16:24:00;1.97;;;1.60;;
15132;SDS011;7667;51.232;17.110;2023-02-18T16:26:40;1.90;;;1.50;;
15132;SDS011;7667;51.232;17.110;2023-02-18T16:29:11;1.50;;;1.40;;
15132;SDS011;7667;51.232;17.110;2023-02-18T16:31:39;2.50;;;1.30;;
15132;SDS011;7667;51.232;17.110;2023-02-18T16:34:08;1.57;;;1.47;;
15132;SDS011;7667;51.232;17.110;2023-02-18T16:36:36;2.30;;;1.40;;
15132;SDS011;7667;51.232;17.110;2023-02-18T16:39:03;1.53;;;1.23;;
15132;SDS011;7667;51.232;17.110;2023-02-18T16:41:30;1.30;;;1.20;;
15132;SDS011;7667;51.232;17.110;2023-02-18T16:43:58;1.87;;;1.30;;
15132;SDS011;7667;51.232;17.110;2023-02-18T16:46:25;2.20;;;1.30;;
15132;SDS011;7667;51.232;17.110;2023-02-18T16:48:54;1.30;;;1.17;;
15132;SDS011;7667;51.232;17.110;2023-02-18T16:51:23;1.80;;;1.10;;
15132;SDS011;7667;51.232;17.110;2023-02-18T16:53:59;1.40;;;1.10;;
15132;SDS011;7667;51.232;17.110;2023-02-18T16:56:28;1.77;;;1.50;;
15132;SDS011;7667;51.232;17.110;2023-02-18T16:58:59;2.30;;;1.10;;
15132;SDS011;7667;51.232;17.110;2023-02-18T17:04:00;1.90;;;0.87;;
15132;SDS011;7667;51.232;17.110;2023-02-18T17:06:29;1.17;;;1.00;;
15132;SDS011;7667;51.232;17.110;2023-02-18T17:08:58;1.90;;;0.90;;
15132;SDS011;7667;51.232;17.110;2023-02-18T17:11:36;1.17;;;0.90;;
15132;SDS011;7667;51.232;17.110;2023-02-18T17:14:13;1.07;;;0.90;;
15132;SDS011;7667;51.232;17.110;2023-02-18T17:16:51;1.10;;;0.93;;
15132;SDS011;7667;51.232;17.110;2023-02-18T17:19:24;1.50;;;1.00;;
15132;SDS011;7667;51.232;17.110;2023-02-18T17:21:52;0.90;;;0.90;;
15132;SDS011;7667;51.232;17.110;2023-02-18T17:24:20;1.03;;;0.93;;
15132;SDS011;7667;51.232;17.110;2023-02-18T17:26:53;1.33;;;0.90;;
15132;SDS011;7667;51.232;17.110;2023-02-18T17:29:26;1.50;;;1.00;;
15132;SDS011;7667;51.232;17.110;2023-02-18T17:31:59;1.20;;;1.10;;
15132;SDS011;7667;51.232;17.110;2023-02-18T17:34:32;1.67;;;1.17;;
15132;SDS011;7667;51.232;17.110;2023-02-18T17:37:01;1.53;;;1.40;;
15132;SDS011;7667;51.232;17.110;2023-02-18T17:39:29;1.97;;;1.20;;
15132;SDS011;7667;51.232;17.110;2023-02-18T17:41:56;1.20;;;1.10;;
15132;SDS011;7667;51.232;17.110;2023-02-18T17:44:24;1.20;;;1.10;;
15132;SDS011;7667;51.232;17.110;2023-02-18T17:46:53;1.50;;;1.30;;
15132;SDS011;7667;51.232;17.110;2023-02-18T17:49:20;1.30;;;1.20;;
15132;SDS011;7667;51.232;17.110;2023-02-18T17:51:48;1.30;;;1.10;;
15132;SDS011;7667;51.232;17.110;2023-02-18T17:54:17;1.87;;;1.40;;
15132;SDS011;7667;51.232;17.110;2023-02-18T17:56:46;1.50;;;1.40;;
15132;SDS011;7667;51.232;17.110;2023-02-18T17:59:13;1.57;;;1.33;;
15132;SDS011;7667;51.232;17.110;2023-02-18T18:01:41;2.90;;;1.80;;